createdAt,value
2023-04-27T00:01:15.463Z,6.68
2023-04-27T00:03:42.737Z,7.47
2023-04-27T00:06:09.994Z,7.05
2023-04-27T00:08:37.382Z,7.30
2023-04-27T00:11:04.405Z,7.28
2023-04-27T00:13:31.104Z,7.28
2023-04-27T00:16:00.841Z,7.47
2023-04-27T00:18:27.657Z,6.43
2023-04-27T00:20:54.446Z,6.55
2023-04-27T00:23:21.449Z,7.20
2023-04-27T00:25:48.126Z,7.05
2023-04-27T00:28:14.867Z,7.30
2023-04-27T00:30:41.665Z,7.32
2023-04-27T00:33:08.407Z,7.57
2023-04-27T00:35:35.088Z,7.22
2023-04-27T00:38:01.782Z,6.85
2023-04-27T00:40:28.624Z,6.63
2023-04-27T00:42:55.514Z,6.75
2023-04-27T00:45:22.566Z,7.22
2023-04-27T00:47:49.919Z,7.05
2023-04-27T00:50:17.301Z,7.10
2023-04-27T00:52:44.438Z,7.03
2023-04-27T00:55:11.777Z,7.30
2023-04-27T00:57:39.010Z,6.80
2023-04-27T01:00:07.289Z,6.90
2023-04-27T01:02:35.959Z,6.57
2023-04-27T01:05:03.620Z,6.50
2023-04-27T01:07:30.732Z,7.07
2023-04-27T01:09:57.469Z,6.53
2023-04-27T01:12:24.564Z,6.28
2023-04-27T01:14:51.472Z,6.38
2023-04-27T01:17:18.313Z,6.13
2023-04-27T01:19:45.111Z,6.47
2023-04-27T01:22:12.134Z,6.63
2023-04-27T01:24:38.912Z,6.63
2023-04-27T01:27:05.767Z,6.30
2023-04-27T01:29:32.763Z,6.43
2023-04-27T01:31:59.526Z,5.68
2023-04-27T01:34:26.396Z,6.63
2023-04-27T01:36:53.243Z,5.80
2023-04-27T01:39:19.983Z,6.47
2023-04-27T01:41:46.703Z,6.30
2023-04-27T01:44:13.488Z,6.05
2023-04-27T01:46:41.049Z,6.28
2023-04-27T01:49:07.919Z,5.93
2023-04-27T01:51:34.735Z,6.70
2023-04-27T01:54:01.453Z,6.55
2023-04-27T01:56:28.130Z,6.18
2023-04-27T01:58:54.841Z,5.88
2023-04-27T02:01:21.586Z,5.50
2023-04-27T02:03:48.436Z,5.97
2023-04-27T02:06:15.341Z,6.25
2023-04-27T02:08:42.122Z,6.25
2023-04-27T02:11:09.276Z,6.00
2023-04-27T02:13:36.327Z,6.93
2023-04-27T02:16:05.083Z,6.35
2023-04-27T02:18:33.698Z,6.18
2023-04-27T02:21:00.783Z,6.47
2023-04-27T02:23:27.636Z,6.82
2023-04-27T02:25:54.394Z,6.18
2023-04-27T02:28:21.505Z,6.60
2023-04-27T02:30:48.554Z,6.22
2023-04-27T02:33:15.354Z,7.63
2023-04-27T02:35:42.225Z,6.38
2023-04-27T02:38:09.000Z,5.93
2023-04-27T02:40:35.830Z,6.10
2023-04-27T02:43:02.591Z,6.25
2023-04-27T02:45:29.705Z,6.15
2023-04-27T02:47:56.621Z,6.80
2023-04-27T02:50:23.422Z,6.53
2023-04-27T02:52:50.146Z,6.57
2023-04-27T02:55:17.277Z,6.35
2023-04-27T02:57:44.348Z,6.90
2023-04-27T03:00:12.051Z,6.13
2023-04-27T03:02:38.888Z,6.88
2023-04-27T03:05:06.846Z,6.35
2023-04-27T03:07:33.524Z,6.93
2023-04-27T03:10:00.273Z,6.65
2023-04-27T03:12:27.097Z,7.00
2023-04-27T03:14:53.802Z,6.32
2023-04-27T03:17:20.690Z,7.07
2023-04-27T03:19:49.381Z,6.47
2023-04-27T03:22:16.120Z,7.28
2023-04-27T03:24:43.101Z,6.30
2023-04-27T03:27:10.176Z,6.30
2023-04-27T03:29:37.289Z,6.97
2023-04-27T03:32:04.645Z,6.35
2023-04-27T03:34:33.482Z,6.97
2023-04-27T03:37:00.140Z,6.45
2023-04-27T03:39:27.724Z,6.65
2023-04-27T03:41:54.442Z,6.47
2023-04-27T03:44:21.233Z,7.25
2023-04-27T03:46:48.041Z,6.80
2023-04-27T03:49:14.909Z,6.40
2023-04-27T03:51:42.584Z,6.55
2023-04-27T03:54:10.086Z,6.80
2023-04-27T03:56:37.077Z,6.30
2023-04-27T03:59:04.955Z,6.75
2023-04-27T04:01:31.947Z,6.78
2023-04-27T04:03:58.985Z,6.30
2023-04-27T04:06:26.154Z,6.75
2023-04-27T04:08:52.845Z,6.32
2023-04-27T04:11:19.566Z,6.85
2023-04-27T04:13:47.333Z,7.07
2023-04-27T04:16:14.157Z,6.72
2023-04-27T04:18:41.262Z,6.63
2023-04-27T04:21:10.109Z,7.07
2023-04-27T04:23:37.618Z,7.07
2023-04-27T04:26:04.904Z,6.75
2023-04-27T04:28:31.724Z,6.63
2023-04-27T04:30:59.699Z,5.95
2023-04-27T04:33:27.129Z,7.25
2023-04-27T04:35:54.421Z,7.50
2023-04-27T04:38:21.297Z,7.05
2023-04-27T04:40:48.251Z,6.80
2023-04-27T04:43:14.907Z,6.05
2023-04-27T04:45:42.648Z,6.28
2023-04-27T04:48:10.293Z,5.93
2023-04-27T04:50:37.102Z,5.80
2023-04-27T04:53:03.798Z,5.97
2023-04-27T04:55:30.861Z,5.75
2023-04-27T04:57:57.620Z,5.63
2023-04-27T05:00:24.414Z,6.00
2023-04-27T05:02:51.302Z,5.80
2023-04-27T05:05:18.264Z,6.47
2023-04-27T05:07:44.920Z,5.70
2023-04-27T05:10:11.762Z,5.82
2023-04-27T05:12:38.718Z,6.30
2023-04-27T05:15:06.194Z,6.18
2023-04-27T05:17:32.981Z,5.93
2023-04-27T05:19:59.694Z,5.90
2023-04-27T05:22:26.455Z,5.65
2023-04-27T05:24:53.121Z,5.57
2023-04-27T05:27:19.826Z,6.00
2023-04-27T05:29:46.570Z,5.47
2023-04-27T05:32:13.327Z,6.15
2023-04-27T05:34:41.082Z,5.72
2023-04-27T05:37:07.844Z,5.57
2023-04-27T05:39:34.544Z,5.38
2023-04-27T05:42:02.927Z,5.43
2023-04-27T05:44:29.697Z,5.68
2023-04-27T05:46:56.731Z,5.05
2023-04-27T05:49:23.827Z,5.85
2023-04-27T05:51:51.814Z,5.28
2023-04-27T05:54:18.560Z,5.38
2023-04-27T05:56:45.436Z,5.25
2023-04-27T05:59:12.604Z,5.93
2023-04-27T06:01:39.591Z,4.97
2023-04-27T06:04:07.069Z,5.40
2023-04-27T06:06:35.319Z,4.68
2023-04-27T06:09:02.096Z,5.20
2023-04-27T06:11:28.799Z,5.68
2023-04-27T06:13:55.536Z,5.43
2023-04-27T06:16:23.261Z,5.00
2023-04-27T06:18:51.206Z,5.45
2023-04-27T06:21:18.214Z,5.78
2023-04-27T06:23:45.723Z,5.90
2023-04-27T06:26:12.461Z,5.22
2023-04-27T06:28:39.180Z,6.32
2023-04-27T06:31:06.598Z,5.32
2023-04-27T06:33:33.753Z,6.40
2023-04-27T06:36:02.307Z,5.68
2023-04-27T06:38:29.379Z,5.50
2023-04-27T06:40:56.331Z,5.90
2023-04-27T06:43:23.337Z,5.50
2023-04-27T06:45:50.298Z,5.95
2023-04-27T06:48:17.360Z,5.70
2023-04-27T06:50:44.377Z,5.90
2023-04-27T06:53:11.282Z,5.70
2023-04-27T06:55:38.084Z,5.65
2023-04-27T06:58:04.873Z,5.68
2023-04-27T07:00:32.233Z,5.40
2023-04-27T07:02:59.110Z,6.68
2023-04-27T07:05:26.065Z,5.43
2023-04-27T07:07:52.937Z,6.20
2023-04-27T07:10:19.912Z,6.07
2023-04-27T07:12:46.582Z,5.85
2023-04-27T07:15:13.541Z,5.72
2023-04-27T07:17:40.230Z,4.93
2023-04-27T07:20:08.762Z,5.18
2023-04-27T07:22:35.641Z,4.85
2023-04-27T07:25:02.429Z,4.82
2023-04-27T07:27:29.119Z,4.80
2023-04-27T07:29:56.629Z,4.57
2023-04-27T07:32:23.460Z,5.18
2023-04-27T07:34:54.034Z,4.80
2023-04-27T07:37:22.233Z,4.70
2023-04-27T07:39:50.460Z,5.30
2023-04-27T07:42:17.339Z,4.40
2023-04-27T07:44:44.403Z,4.53
2023-04-27T07:47:11.518Z,5.15
2023-04-27T07:49:38.230Z,5.55
2023-04-27T07:52:05.618Z,5.05
2023-04-27T07:54:32.342Z,4.50
2023-04-27T07:56:59.108Z,4.65
2023-04-27T07:59:29.227Z,4.45
2023-04-27T08:02:07.123Z,4.38
2023-04-27T08:04:43.338Z,4.88
2023-04-27T08:07:10.829Z,4.75
2023-04-27T08:09:37.869Z,4.50
2023-04-27T08:12:04.981Z,4.20
2023-04-27T08:14:35.162Z,4.68
2023-04-27T08:17:02.191Z,4.25
2023-04-27T08:19:29.106Z,4.10
2023-04-27T08:21:56.107Z,5.25
2023-04-27T08:24:22.771Z,4.80
2023-04-27T08:26:49.688Z,4.50
2023-04-27T08:29:27.023Z,4.30
2023-04-27T08:31:57.160Z,4.45
2023-04-27T08:34:24.187Z,4.47
2023-04-27T08:36:51.122Z,4.70
2023-04-27T08:39:18.539Z,4.22
2023-04-27T08:41:45.482Z,4.28
2023-04-27T08:44:12.446Z,4.55
2023-04-27T08:46:39.640Z,4.68
2023-04-27T08:49:07.672Z,4.22
2023-04-27T08:51:35.505Z,4.35
2023-04-27T08:54:02.794Z,4.53
2023-04-27T08:56:30.712Z,4.20
2023-04-27T08:58:58.561Z,4.57
2023-04-27T09:01:29.078Z,4.10
2023-04-27T09:03:57.380Z,4.25
2023-04-27T09:06:35.596Z,4.32
2023-04-27T09:09:03.924Z,3.88
2023-04-27T09:11:35.538Z,4.13
2023-04-27T09:14:04.216Z,3.95
2023-04-27T09:16:31.914Z,4.57
2023-04-27T09:18:59.011Z,4.90
2023-04-27T09:21:31.146Z,4.18
2023-04-27T09:23:58.186Z,4.80
2023-04-27T09:26:26.837Z,3.95
2023-04-27T09:28:58.341Z,3.60
2023-04-27T09:31:35.399Z,4.40
2023-04-27T09:34:03.064Z,4.50
2023-04-27T09:36:32.244Z,4.10
2023-04-27T09:39:02.376Z,4.38
2023-04-27T09:41:29.619Z,4.05
2023-04-27T09:43:58.173Z,4.35
2023-04-27T09:46:26.330Z,5.20
2023-04-27T09:48:54.464Z,4.55
2023-04-27T09:51:21.165Z,4.47
2023-04-27T09:53:52.924Z,4.60
2023-04-27T09:56:59.900Z,5.00
2023-04-27T09:59:49.041Z,4.82
2023-04-27T10:05:17.603Z,4.70
2023-04-27T10:07:45.321Z,4.60
2023-04-27T10:10:18.849Z,4.53
2023-04-27T10:13:01.212Z,5.00
2023-04-27T10:15:29.266Z,4.97
2023-04-27T10:17:58.991Z,5.55
2023-04-27T10:20:37.090Z,4.80
2023-04-27T10:23:04.433Z,5.30
2023-04-27T10:25:40.632Z,4.90
2023-04-27T10:28:10.255Z,5.15
2023-04-27T10:30:39.245Z,4.85
2023-04-27T10:33:08.584Z,4.97
2023-04-27T10:35:39.838Z,5.90
2023-04-27T10:38:10.837Z,4.82
2023-04-27T10:40:38.933Z,5.10
2023-04-27T10:43:14.192Z,5.63
2023-04-27T10:45:42.310Z,5.65
2023-04-27T10:48:12.806Z,6.10
2023-04-27T10:50:40.542Z,5.30
2023-04-27T10:53:08.095Z,5.43
2023-04-27T10:55:36.202Z,5.15
2023-04-27T10:58:04.334Z,5.45
2023-04-27T11:00:37.303Z,5.85
2023-04-27T11:03:13.157Z,5.47
2023-04-27T11:05:40.402Z,5.63
2023-04-27T11:08:08.552Z,5.55
2023-04-27T11:10:38.964Z,5.97
2023-04-27T11:13:22.759Z,6.10
2023-04-27T11:15:58.852Z,6.15
2023-04-27T11:18:29.172Z,5.90
2023-04-27T11:21:10.441Z,6.90
2023-04-27T11:23:38.422Z,5.68
2023-04-27T11:26:21.998Z,5.10
2023-04-27T11:29:09.363Z,5.80
2023-04-27T11:31:54.302Z,6.15
2023-04-27T11:34:23.232Z,6.13
2023-04-27T11:39:41.534Z,6.15
2023-04-27T11:42:25.929Z,6.32
2023-04-27T11:44:56.922Z,6.53
2023-04-27T11:47:25.227Z,6.10
2023-04-27T11:49:53.104Z,6.38
2023-04-27T11:52:19.867Z,7.00
2023-04-27T11:54:53.162Z,6.72
2023-04-27T11:57:31.512Z,6.70
2023-04-27T12:00:02.734Z,6.93
2023-04-27T12:02:31.267Z,7.00
2023-04-27T12:04:59.970Z,7.05
2023-04-27T12:07:27.208Z,7.50
2023-04-27T12:09:54.294Z,8.52
2023-04-27T12:12:24.622Z,7.15
2023-04-27T12:14:52.075Z,7.72
2023-04-27T12:17:19.211Z,7.93
2023-04-27T12:19:46.206Z,8.02
2023-04-27T12:22:12.937Z,8.82
2023-04-27T12:24:39.620Z,8.57
2023-04-27T12:27:07.957Z,9.95
2023-04-27T12:29:34.680Z,11.00
2023-04-27T12:32:01.655Z,8.60
2023-04-27T12:34:28.501Z,10.45
2023-04-27T12:36:55.324Z,9.52
2023-04-27T12:39:26.802Z,9.23
2023-04-27T12:41:54.062Z,9.85
2023-04-27T12:44:21.799Z,8.15
2023-04-27T12:46:48.962Z,9.02
2023-04-27T12:49:15.987Z,5.55
2023-04-27T12:51:42.834Z,8.80
2023-04-27T12:54:11.193Z,8.18
2023-04-27T12:56:38.216Z,6.75
2023-04-27T12:59:06.248Z,8.10
2023-04-27T13:01:33.690Z,8.80
2023-04-27T13:04:02.145Z,8.50
2023-04-27T13:06:31.193Z,9.13
2023-04-27T13:08:58.849Z,9.45
2023-04-27T13:11:26.571Z,10.13
2023-04-27T13:13:54.829Z,9.02
2023-04-27T13:16:24.580Z,9.20
2023-04-27T13:18:52.533Z,7.70
2023-04-27T13:21:19.617Z,7.80
2023-04-27T13:23:47.669Z,7.82
2023-04-27T13:26:16.653Z,8.85
2023-04-27T13:28:43.457Z,9.00
2023-04-27T13:31:10.837Z,7.85
2023-04-27T13:33:43.099Z,7.80
2023-04-27T13:36:11.226Z,7.57
2023-04-27T13:38:38.300Z,6.97
2023-04-27T13:41:06.324Z,7.40
2023-04-27T13:43:33.209Z,8.18
2023-04-27T13:46:01.491Z,6.05
2023-04-27T13:48:28.895Z,7.72
2023-04-27T13:50:56.016Z,8.50
2023-04-27T13:53:26.150Z,8.57
2023-04-27T13:55:54.280Z,7.30
2023-04-27T13:58:21.454Z,7.05
2023-04-27T14:00:49.067Z,8.50
2023-04-27T14:03:16.710Z,8.82
2023-04-27T14:05:44.518Z,8.35
2023-04-27T14:08:11.666Z,8.32
2023-04-27T14:10:39.015Z,8.75
2023-04-27T14:13:05.990Z,7.63
2023-04-27T14:15:36.979Z,9.48
2023-04-27T14:18:05.723Z,8.02
2023-04-27T14:20:33.043Z,7.55
2023-04-27T14:23:00.366Z,7.65
2023-04-27T14:25:29.779Z,7.95
2023-04-27T14:27:56.522Z,8.18
2023-04-27T14:30:23.278Z,7.80
2023-04-27T14:32:50.049Z,9.57
2023-04-27T14:35:16.868Z,8.68
2023-04-27T14:37:43.513Z,8.10
2023-04-27T14:40:11.015Z,7.95
2023-04-27T14:42:37.828Z,8.23
2023-04-27T14:45:04.957Z,8.25
2023-04-27T14:47:31.859Z,8.45
2023-04-27T14:49:58.626Z,7.68
2023-04-27T14:52:25.326Z,8.32
2023-04-27T14:54:52.016Z,8.57
2023-04-27T14:57:18.655Z,8.68
2023-04-27T14:59:45.388Z,9.90
2023-04-27T15:02:12.098Z,9.50
2023-04-27T15:04:39.931Z,8.90
2023-04-27T15:07:06.993Z,8.63
2023-04-27T15:09:34.304Z,8.70
2023-04-27T15:12:02.023Z,7.93
2023-04-27T15:14:28.740Z,9.10
2023-04-27T15:16:56.040Z,8.98
2023-04-27T15:19:22.763Z,8.73
2023-04-27T15:21:49.608Z,8.02
2023-04-27T15:24:16.744Z,8.45
2023-04-27T15:26:43.392Z,8.05
2023-04-27T15:29:10.082Z,7.75
2023-04-27T15:31:37.127Z,8.35
2023-04-27T15:34:03.867Z,9.27
2023-04-27T15:36:31.530Z,8.48
2023-04-27T15:38:59.549Z,9.85
2023-04-27T15:41:26.303Z,9.68
2023-04-27T15:43:52.965Z,9.48
2023-04-27T15:46:19.785Z,9.18
2023-04-27T15:48:46.518Z,9.80
2023-04-27T15:51:13.286Z,10.57
2023-04-27T15:53:40.061Z,10.65
2023-04-27T15:56:07.039Z,10.15
2023-04-27T15:58:33.765Z,10.27
2023-04-27T16:01:00.851Z,9.30
2023-04-27T16:03:27.675Z,9.05
2023-04-27T16:05:54.477Z,9.70
2023-04-27T16:08:22.669Z,9.70
2023-04-27T16:10:50.066Z,9.82
2023-04-27T16:13:16.757Z,11.13
2023-04-27T16:15:43.504Z,10.90
2023-04-27T16:18:10.340Z,11.43
2023-04-27T16:20:37.121Z,10.13
2023-04-27T16:23:03.907Z,10.05
2023-04-27T16:25:30.690Z,9.80
2023-04-27T16:27:59.106Z,10.18
2023-04-27T16:30:26.012Z,9.88
2023-04-27T16:32:53.035Z,10.70
2023-04-27T16:35:19.895Z,9.90
2023-04-27T16:37:46.698Z,9.80
2023-04-27T16:40:13.447Z,9.23
2023-04-27T16:42:40.080Z,10.45
2023-04-27T16:45:09.879Z,10.07
2023-04-27T16:47:37.568Z,10.40
2023-04-27T16:50:04.550Z,9.80
2023-04-27T16:52:31.906Z,10.75
2023-04-27T16:54:58.632Z,10.15
2023-04-27T16:57:25.884Z,10.13
2023-04-27T16:59:52.836Z,9.90
2023-04-27T17:02:25.216Z,9.25
2023-04-27T17:04:53.839Z,10.13
2023-04-27T17:07:21.219Z,9.63
2023-04-27T17:09:48.022Z,8.35
2023-04-27T17:12:16.645Z,9.52
2023-04-27T17:14:43.313Z,9.70
2023-04-27T17:17:10.524Z,9.55
2023-04-27T17:19:37.601Z,9.32
2023-04-27T17:22:04.834Z,9.32
2023-04-27T17:24:31.701Z,10.38
2023-04-27T17:26:58.477Z,9.40
2023-04-27T17:29:25.363Z,10.65
2023-04-27T17:31:52.021Z,9.43
2023-04-27T17:34:18.845Z,9.82
2023-04-27T17:36:46.206Z,9.52
2023-04-27T17:39:13.763Z,9.80
2023-04-27T17:41:41.289Z,8.93
2023-04-27T17:44:08.082Z,10.13
2023-04-27T17:46:34.801Z,9.65
2023-04-27T17:49:01.626Z,8.60
2023-04-27T17:51:28.437Z,9.85
2023-04-27T17:53:55.109Z,9.82
2023-04-27T17:56:22.482Z,9.10
2023-04-27T17:58:49.203Z,9.43
2023-04-27T18:01:16.230Z,8.30
2023-04-27T18:03:43.176Z,9.30
2023-04-27T18:06:10.062Z,10.35
2023-04-27T18:08:36.716Z,9.45
2023-04-27T18:11:03.476Z,10.25
2023-04-27T18:13:31.806Z,9.15
2023-04-27T18:15:59.273Z,9.45
2023-04-27T18:18:27.091Z,9.10
2023-04-27T18:20:53.794Z,9.80
2023-04-27T18:23:20.983Z,9.50
2023-04-27T18:25:47.841Z,9.57
2023-04-27T18:28:14.719Z,8.75
2023-04-27T18:30:41.895Z,10.40
2023-04-27T18:33:08.909Z,8.95
2023-04-27T18:35:35.890Z,8.77
2023-04-27T18:38:03.473Z,9.05
2023-04-27T18:40:30.685Z,8.52
2023-04-27T18:42:57.623Z,8.65
2023-04-27T18:45:24.328Z,8.45
2023-04-27T18:47:51.236Z,8.65
2023-04-27T18:50:19.083Z,7.85
2023-04-27T18:52:46.440Z,8.32
2023-04-27T18:55:16.908Z,8.65
2023-04-27T18:57:43.859Z,8.38
2023-04-27T19:00:12.226Z,7.60
2023-04-27T19:02:39.219Z,8.25
2023-04-27T19:05:12.990Z,8.25
2023-04-27T19:07:41.051Z,9.00
2023-04-27T19:10:08.456Z,9.55
2023-04-27T19:12:35.863Z,9.50
2023-04-27T19:15:02.793Z,8.57
2023-04-27T19:17:29.552Z,8.57
2023-04-27T19:19:56.524Z,9.48
2023-04-27T19:22:23.524Z,9.48
2023-04-27T19:24:50.380Z,9.00
2023-04-27T19:27:17.081Z,9.30
2023-04-27T19:29:52.313Z,10.05
2023-04-27T19:32:19.811Z,9.07
2023-04-27T19:34:47.136Z,9.02
2023-04-27T19:37:14.082Z,10.18
2023-04-27T19:39:40.950Z,9.82
2023-04-27T19:42:07.894Z,9.38
2023-04-27T19:44:34.627Z,9.25
2023-04-27T19:47:01.331Z,9.45
2023-04-27T19:49:32.550Z,9.35
2023-04-27T19:52:00.428Z,9.27
2023-04-27T19:54:27.251Z,10.63
2023-04-27T19:56:54.560Z,9.80
2023-04-27T19:59:22.039Z,9.85
2023-04-27T20:01:48.913Z,9.80
2023-04-27T20:04:17.719Z,9.52
2023-04-27T20:06:45.148Z,10.40
2023-04-27T20:09:11.871Z,10.75
2023-04-27T20:11:39.235Z,11.32
2023-04-27T20:14:06.272Z,10.02
2023-04-27T20:16:32.942Z,11.00
2023-04-27T20:18:59.698Z,10.55
2023-04-27T20:21:28.212Z,10.68
2023-04-27T20:23:55.062Z,11.15
2023-04-27T20:26:22.376Z,10.38
2023-04-27T20:28:49.109Z,10.10
2023-04-27T20:31:15.950Z,11.38
2023-04-27T20:33:42.761Z,11.32
2023-04-27T20:36:17.276Z,10.32
2023-04-27T20:38:45.372Z,9.85
2023-04-27T20:41:12.767Z,11.70
2023-04-27T20:43:40.043Z,10.23
2023-04-27T20:46:13.681Z,10.20
2023-04-27T20:48:40.608Z,11.23
2023-04-27T20:51:07.320Z,9.88
2023-04-27T20:53:34.191Z,10.75
2023-04-27T20:56:01.161Z,10.18
2023-04-27T20:58:28.059Z,10.30
2023-04-27T21:00:54.870Z,11.30
2023-04-27T21:03:21.802Z,10.85
2023-04-27T21:05:49.293Z,11.05
2023-04-27T21:08:17.028Z,10.82
2023-04-27T21:10:44.272Z,11.25
2023-04-27T21:13:11.170Z,10.63
2023-04-27T21:15:38.944Z,10.70
2023-04-27T21:18:07.915Z,12.18
2023-04-27T21:20:36.254Z,10.85
2023-04-27T21:23:03.539Z,11.98
2023-04-27T21:25:30.414Z,10.45
2023-04-27T21:27:57.132Z,10.57
2023-04-27T21:30:24.415Z,10.57
2023-04-27T21:32:51.263Z,10.27
2023-04-27T21:35:18.109Z,10.18
2023-04-27T21:37:44.899Z,10.02
2023-04-27T21:40:12.003Z,11.15
2023-04-27T21:42:38.693Z,11.65
2023-04-27T21:45:06.262Z,10.77
2023-04-27T21:47:33.020Z,10.65
2023-04-27T21:49:59.728Z,11.13
2023-04-27T21:52:26.625Z,11.70
2023-04-27T21:54:53.359Z,11.40
2023-04-27T21:57:20.305Z,10.43
2023-04-27T21:59:47.089Z,11.40
2023-04-27T22:02:13.861Z,10.57
2023-04-27T22:04:40.701Z,10.93
2023-04-27T22:07:11.014Z,10.63
2023-04-27T22:09:38.147Z,10.82
2023-04-27T22:12:05.041Z,11.15
2023-04-27T22:14:32.027Z,10.32
2023-04-27T22:17:00.652Z,10.60
2023-04-27T22:19:27.963Z,11.00
2023-04-27T22:21:55.515Z,11.48
2023-04-27T22:24:22.482Z,10.27
2023-04-27T22:26:49.305Z,11.55
2023-04-27T22:29:16.725Z,10.70
2023-04-27T22:31:44.315Z,11.50
2023-04-27T22:34:12.959Z,11.27
2023-04-27T22:36:39.968Z,11.48
2023-04-27T22:39:07.188Z,10.82
2023-04-27T22:41:34.042Z,10.27
2023-04-27T22:44:00.968Z,11.63
2023-04-27T22:46:27.974Z,11.02
2023-04-27T22:48:54.905Z,11.68
2023-04-27T22:51:21.856Z,10.43
2023-04-27T22:53:49.065Z,10.90
2023-04-27T22:56:15.909Z,10.93
2023-04-27T22:58:42.673Z,10.73
2023-04-27T23:01:09.402Z,10.68
2023-04-27T23:03:36.334Z,9.32
2023-04-27T23:06:03.523Z,10.23
2023-04-27T23:08:30.296Z,8.75
2023-04-27T23:10:57.402Z,9.73
2023-04-27T23:13:27.875Z,8.55
2023-04-27T23:15:54.739Z,8.23
2023-04-27T23:18:21.743Z,8.13
2023-04-27T23:20:54.174Z,7.72
2023-04-27T23:23:21.348Z,8.40
2023-04-27T23:25:48.393Z,8.48
2023-04-27T23:28:15.551Z,7.32
2023-04-27T23:30:42.356Z,8.43
2023-04-27T23:33:09.138Z,7.47
2023-04-27T23:35:35.850Z,7.93
2023-04-27T23:38:02.473Z,8.55
2023-04-27T23:40:29.163Z,8.15
2023-04-27T23:42:55.983Z,8.13
2023-04-27T23:45:22.670Z,7.45
2023-04-27T23:47:49.458Z,7.38
2023-04-27T23:50:16.722Z,7.20
2023-04-27T23:52:43.403Z,6.57
2023-04-27T23:55:10.324Z,6.70
2023-04-27T23:57:37.415Z,7.28
